createdAt,value
2018-08-28T00:02:22.511Z,100610.19
2018-08-28T00:04:51.489Z,100621.11
2018-08-28T00:07:20.573Z,100619.09
2018-08-28T00:09:49.510Z,100621.27
2018-08-28T00:12:18.531Z,100623.14
2018-08-28T00:14:47.473Z,100617.12
2018-08-28T00:17:16.570Z,100622.59
2018-08-28T00:19:45.721Z,100627.48
2018-08-28T00:22:14.822Z,100627.59
2018-08-28T00:24:43.788Z,100627.98
2018-08-28T00:27:12.778Z,100629.64
2018-08-28T00:29:41.858Z,100629.59
2018-08-28T00:32:10.860Z,100633.97
2018-08-28T00:34:39.847Z,100633.61
2018-08-28T00:37:08.829Z,100634.91
2018-08-28T00:39:37.906Z,100642.96
2018-08-28T00:42:07.014Z,100645.62
2018-08-28T00:44:36.030Z,100647.02
2018-08-28T00:47:05.196Z,100649.89
2018-08-28T00:49:34.176Z,100648.64
2018-08-28T00:52:03.175Z,100650.03
2018-08-28T00:54:32.109Z,100648.69
2018-08-28T00:57:01.134Z,100645.61
2018-08-28T00:59:30.222Z,100642.06
2018-08-28T01:01:59.281Z,100646.48
2018-08-28T01:04:28.341Z,100648.00
2018-08-28T01:06:57.326Z,100653.30
2018-08-28T01:09:26.282Z,100654.17
2018-08-28T01:11:55.305Z,100651.34
2018-08-28T01:14:24.223Z,100658.76
2018-08-28T01:16:53.339Z,100654.92
2018-08-28T01:19:22.301Z,100654.37
2018-08-28T01:21:51.412Z,100660.89
2018-08-28T01:24:20.376Z,100671.66
2018-08-28T01:26:49.437Z,100660.77
2018-08-28T01:29:18.342Z,100662.98
2018-08-28T01:31:47.300Z,100661.06
2018-08-28T01:34:16.217Z,100661.91
2018-08-28T01:36:45.227Z,100656.92
2018-08-28T01:39:14.163Z,100668.52
2018-08-28T01:41:43.126Z,100671.54
2018-08-28T01:44:12.077Z,100662.56
2018-08-28T01:46:41.178Z,100666.06
2018-08-28T01:49:10.110Z,100671.77
2018-08-28T01:51:39.082Z,100669.34
2018-08-28T01:54:08.017Z,100664.63
2018-08-28T01:56:37.018Z,100667.58
2018-08-28T01:59:05.915Z,100672.08
2018-08-28T02:01:34.909Z,100678.64
2018-08-28T02:04:03.915Z,100674.09
2018-08-28T02:06:32.933Z,100673.31
2018-08-28T02:09:01.909Z,100678.80
2018-08-28T02:11:30.936Z,100674.45
2018-08-28T02:13:59.833Z,100682.73
2018-08-28T02:16:28.798Z,100686.00
2018-08-28T02:18:57.863Z,100685.91
2018-08-28T02:21:26.850Z,100686.33
2018-08-28T02:23:55.859Z,100688.22
2018-08-28T02:26:25.005Z,100687.34
2018-08-28T02:28:54.010Z,100684.39
2018-08-28T02:31:22.938Z,100682.14
2018-08-28T02:33:51.990Z,100686.92
2018-08-28T02:36:21.022Z,100684.73
2018-08-28T02:38:50.041Z,100686.89
2018-08-28T02:41:19.031Z,100689.06
2018-08-28T02:43:48.033Z,100683.10
2018-08-28T02:46:17.025Z,100686.21
2018-08-28T02:48:46.029Z,100685.88
2018-08-28T02:51:15.039Z,100683.10
2018-08-28T02:53:44.252Z,100685.55
2018-08-28T02:56:19.433Z,100689.81
2018-08-28T02:58:48.473Z,100687.66
2018-08-28T03:01:17.476Z,100680.08
2018-08-28T03:03:46.466Z,100685.86
2018-08-28T03:06:15.834Z,100683.48
2018-08-28T03:08:44.845Z,100690.16
2018-08-28T03:11:13.951Z,100685.44
2018-08-28T03:13:42.958Z,100692.09
2018-08-28T03:16:11.974Z,100692.25
2018-08-28T03:18:40.966Z,100691.31
2018-08-28T03:21:10.378Z,100696.30
2018-08-28T03:23:40.130Z,100689.54
2018-08-28T03:26:09.498Z,100687.20
2018-08-28T03:28:38.981Z,100687.90
2018-08-28T03:31:08.451Z,100689.62
2018-08-28T03:33:37.451Z,100683.98
2018-08-28T03:36:07.076Z,100692.62
2018-08-28T03:38:36.513Z,100691.23
2018-08-28T03:41:05.532Z,100680.77
2018-08-28T03:43:34.522Z,100688.47
2018-08-28T03:46:03.461Z,100686.98
2018-08-28T03:48:32.670Z,100695.72
2018-08-28T03:51:01.897Z,100697.13
2018-08-28T03:53:31.194Z,100704.25
2018-08-28T03:56:00.141Z,100707.31
2018-08-28T03:58:29.090Z,100698.25
2018-08-28T04:00:58.134Z,100705.83
2018-08-28T04:03:27.109Z,100710.20
2018-08-28T04:05:56.182Z,100712.03
2018-08-28T04:08:25.345Z,100708.51
2018-08-28T04:10:54.533Z,100717.01
2018-08-28T04:13:23.659Z,100718.95
2018-08-28T04:15:52.565Z,100718.95
2018-08-28T04:18:21.821Z,100719.52
2018-08-28T04:20:51.240Z,100720.68
2018-08-28T04:23:20.177Z,100719.05
2018-08-28T04:25:49.190Z,100720.47
2018-08-28T04:28:18.205Z,100726.96
2018-08-28T04:30:47.132Z,100729.49
2018-08-28T04:33:16.165Z,100720.44
2018-08-28T04:35:45.203Z,100727.23
2018-08-28T04:38:14.486Z,100726.73
2018-08-28T04:40:43.756Z,100726.13
2018-08-28T04:43:12.957Z,100731.53
2018-08-28T04:45:42.120Z,100729.86
2018-08-28T04:48:11.194Z,100737.88
2018-08-28T04:50:40.196Z,100735.89
2018-08-28T04:53:09.369Z,100743.45
2018-08-28T04:55:38.793Z,100743.80
2018-08-28T04:58:07.937Z,100741.98
2018-08-28T05:00:37.375Z,100745.46
2018-08-28T05:03:06.453Z,100750.72
2018-08-28T05:05:35.389Z,100747.52
2018-08-28T05:08:04.340Z,100755.81
2018-08-28T05:10:33.285Z,100759.37
2018-08-28T05:13:02.211Z,100756.66
2018-08-28T05:15:31.162Z,100755.17
2018-08-28T05:18:00.326Z,100747.47
2018-08-28T05:20:29.623Z,100748.16
2018-08-28T05:22:58.947Z,100752.66
2018-08-28T05:25:27.950Z,100746.69
2018-08-28T05:27:56.978Z,100759.22
2018-08-28T05:30:26.125Z,100757.87
2018-08-28T05:32:55.354Z,100760.38
2018-08-28T05:35:24.317Z,100762.55
2018-08-28T05:37:53.408Z,100761.51
2018-08-28T05:40:22.462Z,100758.90
2018-08-28T05:42:51.503Z,100757.25
2018-08-28T05:45:20.570Z,100771.54
2018-08-28T05:47:50.028Z,100765.59
2018-08-28T05:50:19.422Z,100767.84
2018-08-28T05:52:48.881Z,100764.89
2018-08-28T05:55:17.881Z,100763.49
2018-08-28T05:57:49.707Z,100765.59
2018-08-28T06:00:19.161Z,100775.16
2018-08-28T06:02:48.451Z,100776.59
2018-08-28T06:05:17.582Z,100773.89
2018-08-28T06:07:46.821Z,100784.41
2018-08-28T06:10:16.254Z,100780.92
2018-08-28T06:12:45.841Z,100778.63
2018-08-28T06:15:15.185Z,100779.06
2018-08-28T06:17:44.148Z,100776.69
2018-08-28T06:20:13.133Z,100783.65
2018-08-28T06:22:42.450Z,100778.28
2018-08-28T06:25:11.680Z,100785.76
2018-08-28T06:27:40.847Z,100787.48
2018-08-28T06:30:10.130Z,100787.80
2018-08-28T06:32:39.317Z,100794.29
2018-08-28T06:35:08.316Z,100792.54
2018-08-28T06:37:37.328Z,100785.86
2018-08-28T06:40:06.286Z,100796.02
2018-08-28T06:42:35.322Z,100796.63
2018-08-28T06:45:04.662Z,100787.83
2018-08-28T06:47:33.765Z,100790.66
2018-08-28T06:50:03.129Z,100789.61
2018-08-28T06:52:32.419Z,100791.41
2018-08-28T06:55:01.758Z,100788.48
2018-08-28T06:57:31.185Z,100791.16
2018-08-28T07:00:00.522Z,100797.74
2018-08-28T07:02:29.899Z,100794.29
2018-08-28T07:04:59.125Z,100793.44
2018-08-28T07:07:28.222Z,100783.68
2018-08-28T07:09:57.518Z,100786.02
2018-08-28T07:12:27.134Z,100784.62
2018-08-28T07:14:56.363Z,100784.02
2018-08-28T07:17:26.256Z,100787.88
2018-08-28T07:19:56.593Z,100790.50
2018-08-28T07:22:27.089Z,100794.34
2018-08-28T07:24:57.551Z,100798.35
2018-08-28T07:27:27.631Z,100800.06
2018-08-28T07:29:57.704Z,100801.08
2018-08-28T07:32:27.665Z,100791.62
2018-08-28T07:34:58.120Z,100800.64
2018-08-28T07:37:27.826Z,100793.92
2018-08-28T07:39:58.239Z,100799.64
2018-08-28T07:42:27.505Z,100797.78
2018-08-28T07:44:57.824Z,100797.11
2018-08-28T07:47:27.310Z,100800.27
2018-08-28T07:49:56.244Z,100803.95
2018-08-28T07:52:25.214Z,100799.76
2018-08-28T07:54:54.152Z,100804.02
2018-08-28T07:57:23.441Z,100806.69
2018-08-28T07:59:53.629Z,100805.33
2018-08-28T08:02:24.177Z,100810.70
2018-08-28T08:04:53.933Z,100812.25
2018-08-28T08:07:25.761Z,100814.77
2018-08-28T08:09:55.301Z,100823.27
2018-08-28T08:12:25.689Z,100812.38
2018-08-28T08:14:56.197Z,100827.47
2018-08-28T08:17:26.182Z,100825.94
2018-08-28T08:19:56.270Z,100824.57
2018-08-28T08:22:26.594Z,100827.85
2018-08-28T08:24:55.957Z,100835.80
2018-08-28T08:27:24.973Z,100833.39
2018-08-28T08:29:54.581Z,100822.05
2018-08-28T08:32:24.273Z,100824.42
2018-08-28T08:34:53.909Z,100825.94
2018-08-28T08:37:24.358Z,100828.30
2018-08-28T08:39:54.137Z,100827.16
2018-08-28T08:42:24.001Z,100829.91
2018-08-28T08:44:54.153Z,100830.19
2018-08-28T08:47:23.443Z,100821.27
2018-08-28T08:49:52.390Z,100828.48
2018-08-28T08:52:21.360Z,100820.22
2018-08-28T08:54:50.600Z,100829.91
2018-08-28T08:57:20.755Z,100825.59
2018-08-28T08:59:50.541Z,100825.00
2018-08-28T09:02:20.717Z,100820.32
2018-08-28T09:04:50.636Z,100821.83
2018-08-28T09:07:21.009Z,100817.16
2018-08-28T09:09:51.275Z,100817.78
2018-08-28T09:12:20.249Z,100818.64
2018-08-28T09:14:49.219Z,100813.47
2018-08-28T09:17:18.477Z,100817.61
2018-08-28T09:19:47.466Z,100815.91
2018-08-28T09:22:17.329Z,100812.66
2018-08-28T09:24:47.230Z,100811.53
2018-08-28T09:27:16.936Z,100809.14
2018-08-28T09:29:46.668Z,100812.09
2018-08-28T09:32:16.349Z,100806.87
2018-08-28T09:34:45.982Z,100804.39
2018-08-28T09:37:16.131Z,100803.09
2018-08-28T09:39:45.726Z,100803.17
2018-08-28T09:42:14.828Z,100798.66
2018-08-28T09:44:43.837Z,100795.75
2018-08-28T09:47:12.826Z,100794.26
2018-08-28T09:49:41.780Z,100806.33
2018-08-28T09:52:11.595Z,100795.54
2018-08-28T09:54:41.246Z,100802.44
2018-08-28T09:57:10.962Z,100801.94
2018-08-28T09:59:40.944Z,100795.11
2018-08-28T10:02:11.118Z,100795.59
2018-08-28T10:04:40.824Z,100790.88
2018-08-28T10:07:11.118Z,100791.53
2018-08-28T10:09:41.183Z,100788.87
2018-08-28T10:12:10.257Z,100781.49
2018-08-28T10:14:39.288Z,100781.94
2018-08-28T10:17:08.762Z,100778.63
2018-08-28T10:19:38.009Z,100777.62
2018-08-28T10:22:08.428Z,100770.98
2018-08-28T10:24:38.044Z,100769.53
2018-08-28T10:27:07.748Z,100771.23
2018-08-28T10:29:37.221Z,100761.20
2018-08-28T10:32:06.574Z,100767.67
2018-08-28T10:34:35.647Z,100764.06
2018-08-28T10:37:06.042Z,100757.34
2018-08-28T10:39:35.721Z,100751.81
2018-08-28T10:42:05.192Z,100751.02
2018-08-28T10:44:34.920Z,100751.80
2018-08-28T10:47:04.577Z,100748.02
2018-08-28T10:49:34.422Z,100754.38
2018-08-28T10:52:04.837Z,100745.95
2018-08-28T10:54:34.799Z,100746.75
2018-08-28T10:57:04.802Z,100744.86
2018-08-28T10:59:35.048Z,100744.90
2018-08-28T11:02:05.184Z,100735.27
2018-08-28T11:04:35.161Z,100737.89
2018-08-28T11:07:04.822Z,100741.96
2018-08-28T11:09:34.553Z,100733.16
2018-08-28T11:12:04.165Z,100726.64
2018-08-28T11:14:33.194Z,100731.61
2018-08-28T11:17:02.098Z,100742.77
2018-08-28T11:19:31.157Z,100731.27
2018-08-28T11:22:00.131Z,100730.69
2018-08-28T11:24:29.998Z,100735.30
2018-08-28T11:26:59.888Z,100733.95
2018-08-28T11:29:29.524Z,100727.70
2018-08-28T11:31:59.189Z,100725.36
2018-08-28T11:34:28.897Z,100724.84
2018-08-28T11:36:58.532Z,100724.80
2018-08-28T11:39:28.155Z,100717.12
2018-08-28T11:41:57.126Z,100722.17
2018-08-28T11:44:26.333Z,100725.69
2018-08-28T11:46:55.399Z,100714.86
2018-08-28T11:49:24.403Z,100709.81
2018-08-28T11:51:54.186Z,100708.72
2018-08-28T11:54:24.250Z,100707.14
2018-08-28T11:56:54.227Z,100711.61
2018-08-28T11:59:24.535Z,100714.28
2018-08-28T12:01:54.656Z,100705.83
2018-08-28T12:04:25.419Z,100712.90
2018-08-28T12:06:55.256Z,100700.77
2018-08-28T12:09:25.557Z,100704.20
2018-08-28T12:11:54.579Z,100697.78
2018-08-28T12:14:23.837Z,100707.07
2018-08-28T12:16:53.201Z,100701.05
2018-08-28T12:19:22.621Z,100699.92
2018-08-28T12:21:52.725Z,100697.38
2018-08-28T12:24:23.896Z,100683.22
2018-08-28T12:26:53.941Z,100690.69
2018-08-28T12:29:24.109Z,100688.72
2018-08-28T12:31:54.356Z,100683.36
2018-08-28T12:34:24.429Z,100676.04
2018-08-28T12:36:54.103Z,100665.64
2018-08-28T12:39:23.363Z,100666.61
2018-08-28T12:41:52.368Z,100664.35
2018-08-28T12:44:21.457Z,100665.00
2018-08-28T12:46:50.415Z,100663.66
2018-08-28T12:49:20.594Z,100663.05
2018-08-28T12:51:50.694Z,100662.16
2018-08-28T12:54:20.953Z,100656.09
2018-08-28T12:56:50.715Z,100659.55
2018-08-28T12:59:20.713Z,100663.73
2018-08-28T13:01:50.764Z,100655.58
2018-08-28T13:04:20.933Z,100658.33
2018-08-28T13:06:50.609Z,100644.88
2018-08-28T13:09:19.997Z,100639.27
2018-08-28T13:11:49.400Z,100634.94
2018-08-28T13:14:18.466Z,100635.07
2018-08-28T13:16:47.449Z,100631.10
2018-08-28T13:19:17.171Z,100624.81
2018-08-28T13:21:46.838Z,100627.08
2018-08-28T13:24:16.809Z,100631.38
2018-08-28T13:26:47.312Z,100617.97
2018-08-28T13:29:17.633Z,100616.94
2018-08-28T13:31:47.730Z,100610.76
2018-08-28T13:34:17.773Z,100604.52
2018-08-28T13:36:46.741Z,100615.31
2018-08-28T13:39:15.980Z,100606.83
2018-08-28T13:41:45.094Z,100612.89
2018-08-28T13:44:14.171Z,100613.84
2018-08-28T13:46:44.208Z,100613.98
2018-08-28T13:49:13.861Z,100605.79
2018-08-28T13:51:43.880Z,100605.24
2018-08-28T13:54:14.137Z,100605.97
2018-08-28T13:56:43.968Z,100599.91
2018-08-28T13:59:14.175Z,100585.76
2018-08-28T14:01:43.844Z,100591.54
2018-08-28T14:04:12.836Z,100591.60
2018-08-28T14:06:42.102Z,100586.79
2018-08-28T14:09:11.274Z,100592.65
2018-08-28T14:11:40.214Z,100581.81
2018-08-28T14:14:10.013Z,100589.28
2018-08-28T14:16:39.654Z,100579.02
2018-08-28T14:19:09.653Z,100579.57
2018-08-28T14:21:39.759Z,100577.62
2018-08-28T14:24:09.944Z,100567.28
2018-08-28T14:26:40.275Z,100578.69
2018-08-28T14:29:10.718Z,100575.18
2018-08-28T14:31:40.762Z,100572.03
2018-08-28T14:34:10.131Z,100569.20
2018-08-28T14:36:40.078Z,100558.46
2018-08-28T14:39:10.111Z,100556.27
2018-08-28T14:41:40.105Z,100553.38
2018-08-28T14:44:09.978Z,100552.88
2018-08-28T14:46:39.544Z,100551.05
2018-08-28T14:49:09.254Z,100545.16
2018-08-28T14:51:38.990Z,100547.43
2018-08-28T14:54:07.961Z,100547.34
2018-08-28T14:56:37.091Z,100539.66
2018-08-28T14:59:07.133Z,100534.66
2018-08-28T15:01:36.118Z,100532.99
2018-08-28T15:04:06.189Z,100532.00
2018-08-28T15:06:36.431Z,100532.45
2018-08-28T15:09:07.651Z,100539.23
2018-08-28T15:11:37.429Z,100536.53
2018-08-28T15:14:07.053Z,100523.59
2018-08-28T15:16:36.895Z,100525.27
2018-08-28T15:19:06.715Z,100533.16
2018-08-28T15:21:36.315Z,100528.22
2018-08-28T15:24:05.254Z,100524.27
2018-08-28T15:26:34.215Z,100527.55
2018-08-28T15:29:03.189Z,100525.66
2018-08-28T15:31:32.176Z,100524.81
2018-08-28T15:34:01.800Z,100527.09
2018-08-28T15:36:31.507Z,100528.87
2018-08-28T15:39:01.156Z,100528.00
2018-08-28T15:41:30.584Z,100519.63
2018-08-28T15:43:59.952Z,100512.38
2018-08-28T15:46:29.309Z,100506.00
2018-08-28T15:48:58.337Z,100509.28
2018-08-28T15:51:27.476Z,100501.31
2018-08-28T15:53:56.309Z,100503.50
2018-08-28T15:56:25.289Z,100497.38
2018-08-28T15:58:54.330Z,100488.14
2018-08-28T16:01:24.138Z,100500.63
2018-08-28T16:03:53.078Z,100496.31
2018-08-28T16:06:22.171Z,100489.16
2018-08-28T16:08:51.413Z,100487.67
2018-08-28T16:11:20.579Z,100490.89
2018-08-28T16:13:49.556Z,100488.19
2018-08-28T16:16:18.534Z,100489.31
2018-08-28T16:18:47.735Z,100489.80
2018-08-28T16:21:16.770Z,100494.31
2018-08-28T16:23:47.466Z,100489.30
2018-08-28T16:26:16.450Z,100488.10
2018-08-28T16:28:45.475Z,100481.81
2018-08-28T16:31:14.458Z,100478.37
2018-08-28T16:33:43.562Z,100475.18
2018-08-28T16:36:13.253Z,100473.16
2018-08-28T16:38:42.181Z,100470.47
2018-08-28T16:41:11.251Z,100460.50
2018-08-28T16:43:40.122Z,100461.02
2018-08-28T16:46:09.270Z,100453.99
2018-08-28T16:48:38.250Z,100455.33
2018-08-28T16:51:07.242Z,100461.31
2018-08-28T16:53:36.511Z,100457.30
2018-08-28T16:56:05.912Z,100447.61
2018-08-28T16:58:35.446Z,100455.16
2018-08-28T17:01:04.490Z,100456.82
2018-08-28T17:03:33.408Z,100450.92
2018-08-28T17:06:03.366Z,100453.04
2018-08-28T17:08:32.605Z,100445.00
2018-08-28T17:11:01.868Z,100444.75
2018-08-28T17:13:30.894Z,100436.27
2018-08-28T17:16:00.401Z,100440.66
2018-08-28T17:18:29.530Z,100435.91
2018-08-28T17:20:58.835Z,100434.05
2018-08-28T17:23:27.793Z,100430.04
2018-08-28T17:25:56.805Z,100430.92
2018-08-28T17:28:25.874Z,100425.59
2018-08-28T17:30:54.898Z,100425.92
2018-08-28T17:33:24.195Z,100421.21
2018-08-28T17:35:53.304Z,100422.12
2018-08-28T17:38:22.233Z,100422.12
2018-08-28T17:40:51.271Z,100417.88
2018-08-28T17:43:20.182Z,100424.15
2018-08-28T17:45:49.154Z,100427.41
2018-08-28T17:48:18.134Z,100416.06
2018-08-28T17:50:47.173Z,100422.77
2018-08-28T17:53:16.259Z,100417.48
2018-08-28T17:55:45.332Z,100419.39
2018-08-28T17:58:14.364Z,100419.97
2018-08-28T18:00:43.453Z,100420.68
2018-08-28T18:03:12.464Z,100421.20
2018-08-28T18:05:41.418Z,100422.97
2018-08-28T18:08:10.425Z,100418.66
2018-08-28T18:10:39.468Z,100416.69
2018-08-28T18:13:09.062Z,100409.99
2018-08-28T18:15:38.217Z,100414.11
2018-08-28T18:18:07.281Z,100410.61
2018-08-28T18:20:36.166Z,100407.71
2018-08-28T18:23:05.191Z,100412.95
2018-08-28T18:25:34.174Z,100405.23
2018-08-28T18:28:03.203Z,100404.19
2018-08-28T18:30:32.112Z,100403.26
2018-08-28T18:33:01.058Z,100401.72
2018-08-28T18:35:30.006Z,100402.33
2018-08-28T18:37:59.296Z,100395.27
2018-08-28T18:40:28.194Z,100400.42
2018-08-28T18:42:57.226Z,100404.90
2018-08-28T18:45:26.196Z,100408.18
2018-08-28T18:47:55.224Z,100406.30
2018-08-28T18:50:24.303Z,100401.39
2018-08-28T18:52:53.239Z,100407.12
2018-08-28T18:55:22.270Z,100407.38
2018-08-28T18:57:51.284Z,100412.55
2018-08-28T19:00:20.456Z,100413.91
2018-08-28T19:02:49.753Z,100413.08
2018-08-28T19:05:18.843Z,100410.27
2018-08-28T19:07:47.915Z,100411.79
2018-08-28T19:10:17.115Z,100419.45
2018-08-28T19:12:46.380Z,100420.48
2018-08-28T19:15:15.371Z,100422.49
2018-08-28T19:17:44.422Z,100419.47
2018-08-28T19:20:13.826Z,100415.57
2018-08-28T19:22:42.931Z,100417.56
2018-08-28T19:25:12.194Z,100416.43
2018-08-28T19:27:41.269Z,100402.47
2018-08-28T19:30:10.261Z,100415.47
2018-08-28T19:32:39.290Z,100420.07
2018-08-28T19:35:08.208Z,100418.28
2018-08-28T19:37:37.180Z,100425.17
2018-08-28T19:40:06.954Z,100419.50
2018-08-28T19:42:35.953Z,100422.15
2018-08-28T19:45:04.942Z,100417.05
2018-08-28T19:47:34.430Z,100419.50
2018-08-28T19:50:03.440Z,100418.40
2018-08-28T19:52:32.413Z,100406.41
2018-08-28T19:55:01.377Z,100404.31
2018-08-28T19:57:31.177Z,100406.15
2018-08-28T20:00:00.235Z,100408.69
2018-08-28T20:02:29.345Z,100412.24
2018-08-28T20:04:58.442Z,100405.59
2018-08-28T20:07:27.575Z,100409.59
2018-08-28T20:09:56.559Z,100412.05
2018-08-28T20:12:25.867Z,100404.89
2018-08-28T20:14:54.872Z,100407.92
2018-08-28T20:17:23.927Z,100417.05
2018-08-28T20:19:53.329Z,100413.92
2018-08-28T20:22:22.300Z,100404.47
2018-08-28T20:24:51.335Z,100410.11
2018-08-28T20:27:20.359Z,100408.02
2018-08-28T20:29:49.351Z,100403.39
2018-08-28T20:32:18.364Z,100402.42
2018-08-28T20:34:47.330Z,100408.83
2018-08-28T20:37:17.001Z,100399.84
2018-08-28T20:39:45.974Z,100399.35
2018-08-28T20:42:15.047Z,100402.70
2018-08-28T20:44:44.002Z,100389.98
2018-08-28T20:47:12.991Z,100386.37
2018-08-28T20:49:42.078Z,100398.70
2018-08-28T20:52:10.985Z,100383.66
2018-08-28T20:54:39.994Z,100383.45
2018-08-28T20:57:08.957Z,100378.61
2018-08-28T20:59:37.957Z,100377.90
2018-08-28T21:02:06.968Z,100374.04
2018-08-28T21:04:35.999Z,100367.75
2018-08-28T21:07:05.068Z,100370.52
2018-08-28T21:09:34.049Z,100361.18
2018-08-28T21:12:03.007Z,100360.61
2018-08-28T21:14:32.114Z,100355.30
2018-08-28T21:17:01.094Z,100364.86
2018-08-28T21:19:30.170Z,100366.22
2018-08-28T21:21:59.176Z,100360.69
2018-08-28T21:24:28.480Z,100361.41
2018-08-28T21:26:57.459Z,100357.09
2018-08-28T21:29:26.624Z,100356.47
2018-08-28T21:31:55.515Z,100353.84
2018-08-28T21:34:24.653Z,100352.08
2018-08-28T21:36:53.833Z,100343.57
2018-08-28T21:39:22.961Z,100339.85
2018-08-28T21:41:51.928Z,100340.73
2018-08-28T21:44:20.895Z,100331.03
2018-08-28T21:46:49.825Z,100328.53
2018-08-28T21:49:18.822Z,100335.02
2018-08-28T21:51:47.837Z,100329.05
2018-08-28T21:54:16.848Z,100328.78
2018-08-28T21:56:45.806Z,100325.11
2018-08-28T21:59:14.787Z,100323.96
2018-08-28T22:01:43.854Z,100321.11
2018-08-28T22:04:12.949Z,100324.72
2018-08-28T22:06:47.212Z,100320.41
2018-08-28T22:09:16.347Z,100308.92
2018-08-28T22:11:45.711Z,100312.91
2018-08-28T22:14:14.762Z,100310.72
2018-08-28T22:16:43.777Z,100317.28
2018-08-28T22:19:12.928Z,100310.69
2018-08-28T22:21:41.846Z,100308.86
2018-08-28T22:24:10.813Z,100309.98
2018-08-28T22:26:39.834Z,100315.17
2018-08-28T22:29:09.024Z,100308.63
2018-08-28T22:31:38.043Z,100312.42
2018-08-28T22:34:07.338Z,100308.63
2018-08-28T22:36:36.341Z,100313.45
2018-08-28T22:39:06.121Z,100327.30
2018-08-28T22:41:35.397Z,100318.30
2018-08-28T22:44:04.470Z,100317.23
2018-08-28T22:46:33.422Z,100312.86
2018-08-28T22:49:02.590Z,100311.37
2018-08-28T22:51:31.501Z,100305.17
2018-08-28T22:54:00.446Z,100310.50
2018-08-28T22:56:29.359Z,100308.68
2018-08-28T22:58:58.331Z,100315.13
2018-08-28T23:01:27.345Z,100314.55
2018-08-28T23:03:56.285Z,100305.06
2018-08-28T23:06:25.261Z,100305.81
2018-08-28T23:08:54.246Z,100297.68
2018-08-28T23:11:23.262Z,100300.31
2018-08-28T23:13:52.262Z,100301.03
2018-08-28T23:16:21.231Z,100294.48
2018-08-28T23:18:50.226Z,100294.27
2018-08-28T23:21:19.159Z,100293.77
2018-08-28T23:23:48.285Z,100282.25
2018-08-28T23:26:17.226Z,100282.06
2018-08-28T23:28:46.159Z,100285.46
2018-08-28T23:31:15.115Z,100273.33
2018-08-28T23:33:44.126Z,100278.44
2018-08-28T23:36:13.103Z,100273.33
2018-08-28T23:38:42.045Z,100280.86
2018-08-28T23:41:11.044Z,100268.77
2018-08-28T23:43:39.989Z,100268.78
2018-08-28T23:46:20.253Z,100278.22
2018-08-28T23:48:49.523Z,100270.17
2018-08-28T23:51:18.496Z,100260.84
2018-08-28T23:53:47.400Z,100250.72
2018-08-28T23:56:16.370Z,100257.30
2018-08-28T23:58:45.331Z,100264.06
